Time;durP1;ratioP1;P1;durP2;ratioP2;P2;SDS_P1;SDS_P2;PMS_P1;PMS_P2;Temp;Humidity;BMP_temperature;BMP_pressure;BME280_temperature;BME280_humidity;BME280_pressure;Samples;Min_cycle;Max_cycle;Signal;HPM_P1;HPM_P2
2023/02/27 00:01:09;;;;;;;;;;;;;;;;;;8442513;27;27577;-79
2023/02/27 00:05:09;;;;;;;;;;;;;;;;;;8446826;27;28254;-79
2023/02/27 00:09:09;;;;;;;;;;;;;;;;;;8428414;27;28537;-79
2023/02/27 00:13:10;;;;;;;;;;;;;;;;;;8441107;27;27373;-78
2023/02/27 00:17:10;;;;;;;;;;;;;;;;;;8430545;27;28635;-79
2023/02/27 00:21:10;;;;;;;;;;;;;;;;;;8448527;27;27106;-79
2023/02/27 00:25:10;;;;;;;;;;;;;;;;;;8444946;27;29308;-79
2023/02/27 00:29:10;;;;;;;;;;;;;;;;;;8434111;27;28623;-78
2023/02/27 00:33:10;;;;;;;;;;;;;;;;;;8442926;27;27434;-80
2023/02/27 00:37:10;;;;;;;;;;;;;;;;;;8424344;27;28470;-79
2023/02/27 00:41:10;;;;;;;;;;;;;;;;;;8439852;27;28009;-79
2023/02/27 00:45:10;;;;;;;;;;;;;;;;;;8442812;27;28805;-77
2023/02/27 00:49:10;;;;;;;;;;;;;;;;;;8449068;27;27711;-77
2023/02/27 00:53:10;;;;;;;;;;;;;;;;;;8427768;27;28600;-77
2023/02/27 00:57:10;;;;;;;;;;;;;;;;;;8422449;27;28875;-77
2023/02/27 01:01:11;;;;;;;;;;;;;;;;;;8450745;27;28038;-78
2023/02/27 01:05:11;;;;;;;;;;;;;;;;;;8450680;27;29969;-77
2023/02/27 01:09:11;;;;;;;;;;;;;;;;;;8433193;27;28155;-79
2023/02/27 01:13:11;;;;;;;;;;;;;;;;;;8437630;27;29954;-79
2023/02/27 01:17:11;;;;;;;;;;;;;;;;;;8439299;27;28632;-79
2023/02/27 01:21:11;;;;;;;;;;;;;;;;;;8452822;27;27435;-77
2023/02/27 01:25:11;;;;;;;;;;;;;;;;;;8449155;27;27396;-79
2023/02/27 01:29:11;;;;;;;;;;;;;;;;;;8448086;27;27792;-79
2023/02/27 01:33:11;;;;;;;;;;;;;;;;;;8456447;27;27409;-78
2023/02/27 01:37:11;;;;;;;;;;;;;;;;;;8445241;27;27246;-80
2023/02/27 01:41:11;;;;;;;;;;;;;;;;;;8448009;27;28504;-79
2023/02/27 01:45:11;;;;;;;;;;;;;;;;;;8454473;27;27929;-79
2023/02/27 01:49:11;;;;;;;;;;;;;;;;;;8452449;27;27566;-80
2023/02/27 01:53:12;;;;;;;;;;;;;;;;;;8451403;27;27954;-79
2023/02/27 01:57:12;;;;;;;;;;;;;;;;;;8429597;27;28648;-77
2023/02/27 02:01:12;;;;;;;;;;;;;;;;;;8425990;27;29330;-80
2023/02/27 02:05:12;;;;;;;;;;;;;;;;;;8444173;27;28758;-79
2023/02/27 02:09:12;;;;;;;;;;;;;;;;;;8446571;27;28605;-79
2023/02/27 02:13:12;;;;;;;;;;;;;;;;;;8447351;27;27560;-78
2023/02/27 02:17:12;;;;;;;;;;;;;;;;;;8450928;27;27305;-79
2023/02/27 02:21:12;;;;;;;;;;;;;;;;;;8447774;27;27178;-79
2023/02/27 02:25:12;;;;;;;;;;;;;;;;;;8442374;27;27951;-77
2023/02/27 02:29:13;;;;;;;;;;;;;;;;;;8452516;27;27314;-78
2023/02/27 02:33:13;;;;;;;;;;;;;;;;;;8443900;27;27563;-78
2023/02/27 02:37:13;;;;;;;;;;;;;;;;;;8443991;27;27308;-78
2023/02/27 02:41:13;;;;;;;;;;;;;;;;;;8427508;27;28250;-78
2023/02/27 02:45:13;;;;;;;;;;;;;;;;;;8428337;27;28778;-79
2023/02/27 02:49:13;;;;;;;;;;;;;;;;;;8449026;27;29728;-79
2023/02/27 02:53:13;;;;;;;;;;;;;;;;;;8444385;27;27300;-79
2023/02/27 02:57:13;;;;;;;;;;;;;;;;;;8427274;27;29717;-79
2023/02/27 03:01:13;;;;;;;;;;;;;;;;;;8444440;27;28461;-79
2023/02/27 03:05:14;;;;;;;;;;;;;;;;;;8440414;27;29046;-78
2023/02/27 03:09:14;;;;;;;;;;;;;;;;;;8448888;27;27504;-78
2023/02/27 03:13:14;;;;;;;;;;;;;;;;;;8444063;27;27099;-79
2023/02/27 03:17:14;;;;;;;;;;;;;;;;;;8423590;27;28566;-78
2023/02/27 03:21:14;;;;;;;;;;;;;;;;;;8420149;27;29022;-78
2023/02/27 03:25:14;;;;;;;;;;;;;;;;;;8426421;27;28987;-79
2023/02/27 03:29:14;;;;;;;;;;;;;;;;;;8442143;27;27171;-78
2023/02/27 03:33:15;;;;;;;;;;;;;;;;;;8439472;27;28753;-79
2023/02/27 03:37:15;;;;;;;;;;;;;;;;;;8429380;27;29929;-79
2023/02/27 03:41:15;;;;;;;;;;;;;;;;;;8441390;27;27377;-79
2023/02/27 03:45:15;;;;;;;;;;;;;;;;;;8443682;27;27362;-79
2023/02/27 03:49:15;;;;;;;;;;;;;;;;;;8445740;27;27458;-79
2023/02/27 03:53:15;;;;;;;;;;;;;;;;;;8443082;27;27235;-77
2023/02/27 03:57:15;;;;;;;;;;;;;;;;;;8435626;27;27838;-77
2023/02/27 04:01:16;;;;;;;;;;;;;;;;;;8426535;27;29891;-78
2023/02/27 04:05:16;;;;;;;;;;;;;;;;;;8439129;27;27151;-77
2023/02/27 04:09:16;;;;;;;;;;;;;;;;;;8441542;27;27787;-78
2023/02/27 04:13:17;;;;;;;;;;;;;;;;;;8439299;27;28836;-77
2023/02/27 04:17:17;;;;;;;;;;;;;;;;;;8427292;27;28996;-78
2023/02/27 04:21:17;;;;;;;;;;;;;;;;;;8443498;27;27837;-77
2023/02/27 04:25:17;;;;;;;;;;;;;;;;;;8440204;27;28112;-78
2023/02/27 04:29:17;;;;;;;;;;;;;;;;;;8424108;27;29715;-77
2023/02/27 04:33:17;;;;;;;;;;;;;;;;;;8424362;27;28644;-78
2023/02/27 04:37:17;;;;;;;;;;;;;;;;;;8445116;27;27517;-78
2023/02/27 04:41:17;;;;;;;;;;;;;;;;;;8446901;27;27921;-78
2023/02/27 04:45:17;;;;;;;;;;;;;;;;;;8446245;27;27957;-78
2023/02/27 04:49:18;;;;;;;;;;;;;;;;;;8446830;27;27151;-78
2023/02/27 04:53:18;;;;;;;;;;;;;;;;;;8446293;27;28388;-77
2023/02/27 04:57:18;;;;;;;;;;;;;;;;;;8444833;27;28255;-77
2023/02/27 05:01:18;;;;;;;;;;;;;;;;;;8429852;27;28284;-78
2023/02/27 05:05:18;;;;;;;;;;;;;;;;;;8433347;27;28548;-78
2023/02/27 05:09:18;;;;;;;;;;;;;;;;;;8436513;27;28513;-77
2023/02/27 05:13:18;;;;;;;;;;;;;;;;;;8450920;27;27374;-77
2023/02/27 05:17:18;;;;;;;;;;;;;;;;;;8436714;27;28568;-77
2023/02/27 05:21:18;;;;;;;;;;;;;;;;;;8454933;27;27493;-77
2023/02/27 05:25:18;;;;;;;;;;;;;;;;;;8454683;27;27531;-78
2023/02/27 05:29:19;;;;;;;;;;;;;;;;;;8428806;27;29482;-78
2023/02/27 05:33:19;;;;;;;;;;;;;;;;;;8448080;27;27354;-80
2023/02/27 05:37:19;;;;;;;;;;;;;;;;;;8451866;27;28894;-79
2023/02/27 05:41:19;;;;;;;;;;;;;;;;;;8452654;27;27358;-79
2023/02/27 05:45:19;;;;;;;;;;;;;;;;;;8432270;27;29200;-79
2023/02/27 05:49:19;;;;;;;;;;;;;;;;;;8443596;27;27452;-79
2023/02/27 05:53:19;;;;;;;;;;;;;;;;;;8442846;27;27396;-78
2023/02/27 05:57:19;;;;;;;;;;;;;;;;;;8453043;27;28677;-78
2023/02/27 06:01:19;;;;;;;;;;;;;;;;;;8454679;27;28423;-78
2023/02/27 06:05:19;;;;;;;;;;;;;;;;;;8446005;27;28629;-79
2023/02/27 06:09:20;;;;;;;;;;;;;;;;;;8444785;27;27859;-79
2023/02/27 06:13:20;;;;;;;;;;;;;;;;;;8441134;27;28814;-79
2023/02/27 06:17:21;;;;;;;;;;;;;;;;;;8449274;27;28690;-78
2023/02/27 06:21:21;;;;;;;;;;;;;;;;;;8450624;27;27253;-77
2023/02/27 06:25:21;;;;;;;;;;;;;;;;;;8441903;27;27440;-79
2023/02/27 06:29:21;;;;;;;;;;;;;;;;;;8429278;27;28581;-78
2023/02/27 06:33:21;;;;;;;;;;;;;;;;;;8450006;27;29133;-78
2023/02/27 06:37:21;;;;;;;;;;;;;;;;;;8448170;27;29067;-78
2023/02/27 06:41:21;;;;;;;;;;;;;;;;;;8448033;27;27436;-79
2023/02/27 06:45:23;;;;;;;;;;;;;;;;;;8447959;27;27391;-79
2023/02/27 06:49:23;;;;;;;;;;;;;;;;;;8443775;27;28577;-79
2023/02/27 06:53:23;;;;;;;;;;;;;;;;;;8443975;27;28471;-77
2023/02/27 06:57:23;;;;;;;;;;;;;;;;;;8421393;27;30222;-79
2023/02/27 07:01:25;;;;;;;;;;;;;;;;;;8445899;27;28905;-78
2023/02/27 07:05:25;;;;;;;;;;;;;;;;;;8448866;27;28004;-77
2023/02/27 07:09:25;;;;;;;;;;;;;;;;;;8445027;27;28816;-78
2023/02/27 07:13:25;;;;;;;;;;;;;;;;;;8443727;27;27446;-77
2023/02/27 07:17:25;;;;;;;;;;;;;;;;;;8441198;27;28235;-77
2023/02/27 07:21:25;;;;;;;;;;;;;;;;;;8443342;27;27687;-77
2023/02/27 07:25:26;;;;;;;;;;;;;;;;;;8427331;27;28226;-77
2023/02/27 07:29:26;;;;;;;;;;;;;;;;;;8443571;27;27292;-76
2023/02/27 07:33:26;;;;;;;;;;;;;;;;;;8446124;27;27497;-77
2023/02/27 07:37:26;;;;;;;;;;;;;;;;;;8441383;27;27430;-78
2023/02/27 07:41:26;;;;;;;;;;;;;;;;;;8428177;27;29189;-77
2023/02/27 07:45:26;;;;;;;;;;;;;;;;;;8442751;27;27555;-79
2023/02/27 07:49:26;;;;;;;;;;;;;;;;;;8439903;27;28157;-79
2023/02/27 07:53:26;;;;;;;;;;;;;;;;;;8447401;27;28684;-79
2023/02/27 07:57:26;;;;;;;;;;;;;;;;;;8442477;27;28285;-78
2023/02/27 08:01:27;;;;;;;;;;;;;;;;;;8445145;27;27643;-79
2023/02/27 08:05:27;;;;;;;;;;;;;;;;;;8445484;27;27161;-80
2023/02/27 08:09:27;;;;;;;;;;;;;;;;;;8444060;27;28753;-79
2023/02/27 08:13:27;;;;;;;;;;;;;;;;;;8445162;27;27321;-79
2023/02/27 08:17:27;;;;;;;;;;;;;;;;;;8446865;27;27368;-79
2023/02/27 08:21:27;;;;;;;;;;;;;;;;;;8449136;27;29745;-79
2023/02/27 08:25:29;;;;;;;;;;;;;;;;;;8440442;27;28874;-78
2023/02/27 08:29:31;;;;;;;;;;;;;;;;;;8444299;27;29014;-79
2023/02/27 08:33:31;;;;;;;;;;;;;;;;;;8440860;27;27149;-79
2023/02/27 08:37:31;;;;;;;;;;;;;;;;;;8447702;27;27921;-78
2023/02/27 08:41:31;;;;;;;;;;;;;;;;;;8448608;27;27456;-78
2023/02/27 08:45:31;;;;;;;;;;;;;;;;;;8422297;27;28982;-79
2023/02/27 08:49:31;;;;;;;;;;;;;;;;;;8429367;27;28618;-77
2023/02/27 08:53:31;;;;;;;;;;;;;;;;;;8438619;27;27955;-77
2023/02/27 08:57:31;;;;;;;;;;;;;;;;;;8420163;27;28208;-78
2023/02/27 09:01:33;;;;;;;;;;;;;;;;;;8443630;27;27858;-78
2023/02/27 09:05:34;;;;;;;;;;;;;;;;;;8441530;27;27241;-79
2023/02/27 09:09:34;;;;;;;;;;;;;;;;;;8440297;27;27986;-78
2023/02/27 09:13:34;;;;;;;;;;;;;;;;;;8444036;27;27283;-78
2023/02/27 09:17:34;;;;;;;;;;;;;;;;;;8444231;27;28319;-79
2023/02/27 09:21:36;;;;;;;;;;;;;;;;;;8422976;27;28529;-80
2023/02/27 09:25:36;;;;;;;;;;;;;;;;;;8441003;27;27408;-77
2023/02/27 09:29:36;;;;;;;;;;;;;;;;;;8445147;27;27564;-79
2023/02/27 09:33:37;;;;;;;;;;;;;;;;;;8446165;27;28962;-77
2023/02/27 09:37:37;;;;;;;;;;;;;;;;;;8446176;27;27350;-80
2023/02/27 09:41:38;;;;;;;;;;;;;;;;;;8447143;27;27728;-79
2023/02/27 09:45:38;;;;;;;;;;;;;;;;;;8423640;27;28585;-80
2023/02/27 09:49:38;;;;;;;;;;;;;;;;;;8450347;27;28291;-80
2023/02/27 09:53:38;;;;;;;;;;;;;;;;;;8445624;27;28731;-78
2023/02/27 09:57:38;;;;;;;;;;;;;;;;;;8445537;27;27916;-79
2023/02/27 10:01:38;;;;;;;;;;;;;;;;;;8446168;27;27516;-78
2023/02/27 10:05:38;;;;;;;;;;;;;;;;;;8443083;27;27168;-79
2023/02/27 10:09:38;;;;;;;;;;;;;;;;;;8451047;27;27662;-80
2023/02/27 10:13:38;;;;;;;;;;;;;;;;;;8448498;27;27768;-79
2023/02/27 10:17:39;;;;;;;;;;;;;;;;;;8451144;27;27599;-80
2023/02/27 10:21:39;;;;;;;;;;;;;;;;;;8448203;27;28265;-80
2023/02/27 10:25:39;;;;;;;;;;;;;;;;;;8444122;27;27070;-78
2023/02/27 10:29:39;;;;;;;;;;;;;;;;;;8421932;27;28586;-80
2023/02/27 10:33:39;;;;;;;;;;;;;;;;;;8441780;27;27442;-80
2023/02/27 10:37:39;;;;;;;;;;;;;;;;;;8440771;27;27768;-79
2023/02/27 10:41:39;;;;;;;;;;;;;;;;;;8447419;27;27668;-79
2023/02/27 10:45:39;;;;;;;;;;;;;;;;;;8449197;27;27125;-79
2023/02/27 10:49:40;;;;;;;;;;;;;;;;;;8422896;27;29947;-79
2023/02/27 10:53:40;;;;;;;;;;;;;;;;;;8439095;27;28535;-79
2023/02/27 10:57:40;;;;;;;;;;;;;;;;;;8424674;27;29042;-80
2023/02/27 11:01:40;;;;;;;;;;;;;;;;;;8421594;27;29112;-80
2023/02/27 11:05:40;;;;;;;;;;;;;;;;;;8443414;27;28572;-79
2023/02/27 11:09:40;;;;;;;;;;;;;;;;;;8445394;27;27776;-80
2023/02/27 11:13:41;;;;;;;;;;;;;;;;;;8427297;27;30113;-80
2023/02/27 11:17:41;;;;;;;;;;;;;;;;;;8454189;27;27391;-80
2023/02/27 11:21:41;;;;;;;;;;;;;;;;;;8427384;27;28955;-78
2023/02/27 11:25:44;;;;;;;;;;;;;;;;;;8515440;22;27462;-78
2023/02/27 11:29:44;;;;;;;;;;;;;;;;;;8488321;27;28191;-81
2023/02/27 11:33:44;;;;;;;;;;;;;;;;;;8493430;27;27734;-80
2023/02/27 11:37:46;;;;;;;;;;;;;;;;;;8525831;27;28246;-79
2023/02/27 11:41:51;;;;;;;;;;;;;;;;;;8503321;27;29005;-78
2023/02/27 11:45:51;;;;;;;;;;;;;;;;;;8527083;27;27355;-80
2023/02/27 11:49:51;;;;;;;;;;;;;;;;;;8521899;27;27567;-80
2023/02/27 11:53:57;;;;;;;;;;;;;;;;;;8510802;27;27968;-80
2023/02/27 11:58:00;;;;;;;;;;;;;;;;;;8503690;27;28519;-80
2023/02/27 12:02:00;;;;;;;;;;;;;;;;;;8501396;27;28686;-78
2023/02/27 12:06:00;;;;;;;;;;;;;;;;;;8523084;27;27357;-78
2023/02/27 12:10:00;;;;;;;;;;;;;;;;;;8516493;27;27509;-79
2023/02/27 12:14:03;;;;;;;;;;;;;;;;;;8499978;27;28526;-79
2023/02/27 12:18:03;;;;;;;;;;;;;;;;;;8496389;27;29485;-81
2023/02/27 12:22:03;;;;;;;;;;;;;;;;;;8519580;27;27330;-77
2023/02/27 12:26:03;;;;;;;;;;;;;;;;;;8502880;27;27568;-80
2023/02/27 12:30:03;;;;;;;;;;;;;;;;;;8520612;27;27488;-79
2023/02/27 12:34:04;;;;;;;;;;;;;;;;;;8527300;27;27150;-80
2023/02/27 12:38:04;;;;;;;;;;;;;;;;;;8526349;27;27211;-80
2023/02/27 12:42:04;;;;;;;;;;;;;;;;;;8517751;27;27617;-80
2023/02/27 12:46:04;;;;;;;;;;;;;;;;;;8498360;27;28589;-79
2023/02/27 12:50:04;;;;;;;;;;;;;;;;;;8502627;27;29377;-78
2023/02/27 12:54:04;;;;;;;;;;;;;;;;;;8508046;27;28727;-78
2023/02/27 12:58:04;;;;;;;;;;;;;;;;;;8500425;27;28822;-78
2023/02/27 13:02:04;;;;;;;;;;;;;;;;;;8504582;27;29281;-77
2023/02/27 13:06:04;;;;;;;;;;;;;;;;;;8521031;27;28124;-77
2023/02/27 13:10:04;;;;;;;;;;;;;;;;;;8529610;27;28046;-78
2023/02/27 13:14:04;;;;;;;;;;;;;;;;;;8525381;27;27795;-78
2023/02/27 13:18:04;;;;;;;;;;;;;;;;;;8504393;27;28489;-80
2023/02/27 13:22:05;;;;;;;;;;;;;;;;;;8499508;27;28534;-80
2023/02/27 13:26:05;;;;;;;;;;;;;;;;;;8522654;27;27471;-77
2023/02/27 13:30:05;;;;;;;;;;;;;;;;;;8500124;27;28467;-80
2023/02/27 13:34:05;;;;;;;;;;;;;;;;;;8519275;27;27477;-79
2023/02/27 13:38:05;;;;;;;;;;;;;;;;;;8501511;27;28702;-80
2023/02/27 13:55:38;;;;;;;;;;;;;;;;;;8472567;22;27244;-79
2023/02/27 14:00:03;;;;;;;;;;;;;;;;;;8453358;27;27436;-80
2023/02/27 14:04:12;;;;;;;;;;;;;;;;;;8427681;27;28398;-80
2023/02/27 14:17:02;;;;;;;;;;;;;;;;;;8463378;27;28406;-82
2023/02/27 14:29:53;;;;;;;;;;;;;;;;;;8348670;28;27221;-80
2023/02/27 14:38:25;;;;;;;;;;;;;;;;;;;;;
2023/02/27 14:51:05;;;;;;;;;;;;;;;;;;8279420;28;27298;-81
2023/02/27 14:55:05;;;;;;;;;;;;;;;;;;8319436;28;28503;-80
2023/02/27 14:59:05;;;;;;;;;;;;;;;;;;8316056;28;27652;-81
2023/02/27 15:03:05;;;;;;;;;;;;;;;;;;8316103;28;27341;-79
2023/02/27 15:07:06;;;;;;;;;;;;;;;;;;8314729;28;27548;-79
2023/02/27 15:11:19;;;;;;;;;;;;;;;;;;;;;
2023/02/27 15:15:19;;;;;;;;;;;;;;;;;;8315736;28;55555;-79
2023/02/27 15:19:19;;;;;;;;;;;;;;;;;;8294912;28;28493;-79
2023/02/27 15:23:19;;;;;;;;;;;;;;;;;;8310105;28;28743;-81
2023/02/27 15:27:19;;;;;;;;;;;;;;;;;;8321462;28;27277;-80
2023/02/27 15:31:20;;;;;;;;;;;;;;;;;;8323450;28;27272;-78
2023/02/27 15:35:20;;;;;;;;;;;;;;;;;;8296225;28;28542;-80
2023/02/27 15:39:20;;;;;;;;;;;;;;;;;;8296151;28;28599;-79
2023/02/27 15:43:20;;;;;;;;;;;;;;;;;;8315236;28;29539;-80
2023/02/27 15:47:20;;;;;;;;;;;;;;;;;;8314128;28;27307;-80
2023/02/27 15:51:20;;;;;;;;;;;;;;;;;;8315714;28;27531;-79
2023/02/27 15:55:20;;;;;;;;;;;;;;;;;;8298251;28;28822;-80
2023/02/27 15:59:20;;;;;;;;;;;;;;;;;;8320160;28;27182;-80
2023/02/27 16:03:21;;;;;;;;;;;;;;;;;;8310928;28;27232;-79
2023/02/27 16:07:21;;;;;;;;;;;;;;;;;;8308155;28;28428;-81
2023/02/27 16:11:21;;;;;;;;;;;;;;;;;;8312494;28;27790;-78
2023/02/27 16:15:21;;;;;;;;;;;;;;;;;;8295998;28;30031;-80
2023/02/27 16:19:21;;;;;;;;;;;;;;;;;;8319361;28;27655;-81
2023/02/27 16:23:21;;;;;;;;;;;;;;;;;;8314411;28;28272;-80
2023/02/27 16:27:22;;;;;;;;;;;;;;;;;;8300658;28;28840;-81
2023/02/27 16:31:23;;;;;;;;;;;;;;;;;;8278909;28;28890;-79
2023/02/27 16:35:23;;;;;;;;;;;;;;;;;;8267884;28;29702;-80
2023/02/27 16:39:23;;;;;;;;;;;;;;;;;;8272165;28;28890;-81
2023/02/27 16:43:23;;;;;;;;;;;;;;;;;;8269421;28;27556;-81
2023/02/27 16:47:24;;;;;;;;;;;;;;;;;;8287284;28;28486;-80
2023/02/27 16:51:24;;;;;;;;;;;;;;;;;;8290394;28;27091;-80
2023/02/27 16:55:24;;;;;;;;;;;;;;;;;;8293734;28;28850;-80
2023/02/27 16:59:25;;;;;;;;;;;;;;;;;;8293608;28;28851;-80
2023/02/27 17:03:26;;;;;;;;;;;;;;;;;;8277808;28;29844;-80
2023/02/27 17:07:27;;;;;;;;;;;;;;;;;;8290334;28;29022;-80
2023/02/27 17:11:27;;;;;;;;;;;;;;;;;;8285326;28;28604;-80
2023/02/27 17:15:27;;;;;;;;;;;;;;;;;;8292963;28;30102;-79
2023/02/27 17:19:27;;;;;;;;;;;;;;;;;;8290771;28;27219;-80
2023/02/27 17:23:28;;;;;;;;;;;;;;;;;;8291169;28;27396;-80
2023/02/27 17:27:28;;;;;;;;;;;;;;;;;;8288232;28;28778;-81
2023/02/27 17:31:28;;;;;;;;;;;;;;;;;;8299377;28;29006;-82
2023/02/27 17:35:29;;;;;;;;;;;;;;;;;;8301509;28;29831;-80
2023/02/27 17:39:29;;;;;;;;;;;;;;;;;;8328244;28;27674;-82
2023/02/27 17:43:29;;;;;;;;;;;;;;;;;;8306603;28;28481;-81
2023/02/27 17:47:29;;;;;;;;;;;;;;;;;;8325194;28;27379;-81
2023/02/27 17:51:29;;;;;;;;;;;;;;;;;;8296816;28;28606;-82
2023/02/27 17:55:29;;;;;;;;;;;;;;;;;;8322853;28;27243;-82
2023/02/27 17:59:30;;;;;;;;;;;;;;;;;;8309230;28;28733;-83
2023/02/27 18:03:30;;;;;;;;;;;;;;;;;;8325604;28;27472;-82
2023/02/27 18:07:30;;;;;;;;;;;;;;;;;;8320741;28;28190;-83
2023/02/27 18:11:30;;;;;;;;;;;;;;;;;;8320318;28;28555;-82
2023/02/27 18:15:30;;;;;;;;;;;;;;;;;;8299891;28;28780;-82
2023/02/27 18:19:30;;;;;;;;;;;;;;;;;;8322377;28;27427;-82
2023/02/27 18:28:03;;;;;;;;;;;;;;;;;;8421802;27;27383;-82
2023/02/27 18:32:26;;;;;;;;;;;;;;;;;;;;;
2023/02/27 18:36:29;;;;;;;;;;;;;;;;;;8417485;27;58204;-83
2023/02/27 18:40:29;;;;;;;;;;;;;;;;;;8400236;27;28535;-83
2023/02/27 18:44:29;;;;;;;;;;;;;;;;;;8396169;27;28207;-82
2023/02/27 18:53:11;;;;;;;;;;;;;;;;;;;;;
2023/02/27 18:57:14;;;;;;;;;;;;;;;;;;8345265;28;57824;-82
2023/02/27 19:14:58;;;;;;;;;;;;;;;;;;8459807;27;27418;-82
2023/02/27 19:19:01;;;;;;;;;;;;;;;;;;8439717;27;28521;-83
2023/02/27 19:23:01;;;;;;;;;;;;;;;;;;8458390;27;28072;-82
2023/02/27 19:27:01;;;;;;;;;;;;;;;;;;8442020;27;28566;-83
2023/02/27 19:31:09;;;;;;;;;;;;;;;;;;8459269;27;28649;-82
2023/02/27 19:35:28;;;;;;;;;;;;;;;;;;;;;
2023/02/27 19:57:10;;;;;;;;;;;;;;;;;;8403404;27;28010;-80
2023/02/27 20:14:32;;;;;;;;;;;;;;;;;;8450193;27;27735;-81
2023/02/27 20:36:35;;;;;;;;;;;;;;;;;;8446713;27;27130;-83
2023/02/27 20:40:40;;;;;;;;;;;;;;;;;;8460718;27;28447;-83
2023/02/27 20:49:18;;;;;;;;;;;;;;;;;;8352714;28;27532;-82
2023/02/27 21:01:56;;;;;;;;;;;;;;;;;;8452538;27;27704;-82
2023/02/27 21:10:22;;;;;;;;;;;;;;;;;;8450303;27;27226;-83
2023/02/27 21:14:31;;;;;;;;;;;;;;;;;;8430742;27;29367;-83
2023/02/27 21:23:03;;;;;;;;;;;;;;;;;;8450928;27;27308;-82
2023/02/27 21:31:37;;;;;;;;;;;;;;;;;;;;;
2023/02/27 21:35:50;;;;;;;;;;;;;;;;;;;;;
2023/02/27 21:48:48;;;;;;;;;;;;;;;;;;;;;
2023/02/27 21:53:04;;;;;;;;;;;;;;;;;;8454977;27;56869;-82
2023/02/27 22:10:30;;;;;;;;;;;;;;;;;;8458364;27;27755;-82
2023/02/27 22:14:53;;;;;;;;;;;;;;;;;;8411521;27;28487;-81
2023/02/27 22:27:59;;;;;;;;;;;;;;;;;;;;;
2023/02/27 22:32:27;;;;;;;;;;;;;;;;;;;;;
2023/02/27 22:49:55;;;;;;;;;;;;;;;;;;8358982;27;28127;-80
2023/02/27 22:54:01;;;;;;;;;;;;;;;;;;8428303;27;27368;-83
2023/02/27 23:02:19;;;;;;;;;;;;;;;;;;8413791;27;28005;-82
2023/02/27 23:06:31;;;;;;;;;;;;;;;;;;;;;
2023/02/27 23:10:45;;;;;;;;;;;;;;;;;;8383367;28;56087;-82
2023/02/27 23:19:16;;;;;;;;;;;;;;;;;;8394319;27;27362;-84
2023/02/27 23:45:38;;;;;;;;;;;;;;;;;;;;;
2023/02/27 23:49:39;;;;;;;;;;;;;;;;;;8350477;28;56041;-83
2023/02/27 23:58:23;;;;;;;;;;;;;;;;;;8296739;27;27765;-83
